Time;durP1;ratioP1;P1;durP2;ratioP2;P2;SDS_P1;SDS_P2;PMS_P1;PMS_P2;Temp;Humidity;BMP_temperature;BMP_pressure;BME280_temperature;BME280_humidity;BME280_pressure;Samples;Min_cycle;Max_cycle;Signal;HPM_P1;HPM_P2
2022/08/27 00:02:08;;;;;;;22.17;11.13;;;;;;;21.64;100.00;100360.44;5192595;28;20064;-79
2022/08/27 00:04:40;;;;;;;19.08;10.32;;;;;;;21.63;100.00;100353.44;5186322;28;20022;-79
2022/08/27 00:07:12;;;;;;;16.58;9.60;;;;;;;21.55;100.00;100355.88;5173459;28;20042;-79
2022/08/27 00:09:42;;;;;;;20.63;10.57;;;;;;;21.71;100.00;100366.97;5193809;28;20550;-80
2022/08/27 00:12:13;;;;;;;23.80;11.80;;;;;;;21.61;100.00;100358.84;5195432;28;20041;-79
2022/08/27 00:14:43;;;;;;;19.77;11.25;;;;;;;21.60;100.00;100366.97;5186300;28;20529;-80
2022/08/27 00:17:14;;;;;;;26.25;11.88;;;;;;;21.75;100.00;100371.03;5183878;28;20101;-79
2022/08/27 00:19:45;;;;;;;21.10;12.02;;;;;;;21.70;100.00;100373.22;5181576;28;20064;-80
2022/08/27 00:22:15;;;;;;;23.70;12.68;;;;;;;21.72;100.00;100371.31;5188696;28;20054;-79
2022/08/27 00:24:45;;;;;;;19.42;12.50;;;;;;;21.65;100.00;100364.78;5190886;28;20026;-79
2022/08/27 00:27:16;;;;;;;22.95;12.85;;;;;;;21.61;100.00;100371.31;5170118;28;20021;-79
2022/08/27 00:29:46;;;;;;;21.48;12.55;;;;;;;21.71;100.00;100373.09;5191323;28;20537;-77
2022/08/27 00:32:18;;;;;;;18.40;11.82;;;;;;;21.72;100.00;100374.78;5189730;28;20065;-80
2022/08/27 00:34:48;;;;;;;23.70;12.48;;;;;;;21.60;100.00;100370.47;5174622;28;20445;-79
2022/08/27 00:37:19;;;;;;;21.42;11.27;;;;;;;21.67;100.00;100376.16;5176265;28;20022;-79
2022/08/27 00:39:49;;;;;;;22.33;12.35;;;;;;;21.80;100.00;100376.81;5185871;28;20029;-80
2022/08/27 00:42:21;;;;;;;25.95;12.43;;;;;;;21.74;100.00;100367.50;5186221;28;20041;-80
2022/08/27 00:44:51;;;;;;;20.67;12.13;;;;;;;21.63;100.00;100369.41;5190210;28;20037;-79
2022/08/27 00:50:02;;;;;;;21.85;13.38;;;;;;;21.70;100.00;100378.53;5201785;28;20053;-72
2022/08/27 00:52:45;;;;;;;19.25;12.52;;;;;;;21.72;100.00;100380.09;5209735;28;20591;-72
2022/08/27 00:55:19;;;;;;;24.88;13.20;;;;;;;21.67;100.00;100379.66;5206315;28;20044;-73
2022/08/27 00:57:56;;;;;;;21.50;12.35;;;;;;;21.52;100.00;100382.72;5209323;28;20074;-73
2022/08/27 01:00:27;;;;;;;18.50;11.65;;;;;;;21.64;100.00;100381.72;5203728;28;20087;-73
2022/08/27 01:02:57;;;;;;;17.23;11.18;;;;;;;21.61;100.00;100384.63;5209999;28;20037;-73
2022/08/27 01:05:28;;;;;;;18.02;11.05;;;;;;;21.62;100.00;100380.97;5207281;28;20033;-73
2022/08/27 01:08:05;;;;;;;18.95;11.43;;;;;;;21.54;100.00;100381.63;5190625;28;20025;-73
2022/08/27 01:10:37;;;;;;;21.20;11.80;;;;;;;21.52;100.00;100382.72;5208308;28;20033;-73
2022/08/27 01:13:10;;;;;;;22.00;11.52;;;;;;;21.37;100.00;100384.84;5210378;28;20032;-73
2022/08/27 01:15:41;;;;;;;18.38;10.27;;;;;;;21.47;100.00;100384.91;5206573;28;20032;-72
2022/08/27 01:18:13;;;;;;;22.33;11.68;;;;;;;21.57;100.00;100391.19;5202414;28;20021;-72
2022/08/27 01:20:56;;;;;;;17.65;10.82;;;;;;;21.41;100.00;100388.09;5191031;28;20568;-72
2022/08/27 01:23:41;;;;;;;22.10;11.05;;;;;;;21.42;100.00;100374.66;5207772;28;20387;-73
2022/08/27 01:26:13;;;;;;;18.67;10.50;;;;;;;21.43;100.00;100378.19;5211198;28;20056;-72
2022/08/27 01:28:44;;;;;;;18.90;10.65;;;;;;;21.40;100.00;100381.09;5212117;28;20459;-73
2022/08/27 01:31:15;;;;;;;16.55;10.77;;;;;;;21.43;100.00;100386.16;5204774;28;20095;-72
2022/08/27 01:34:00;;;;;;;23.17;12.00;;;;;;;21.23;100.00;100378.97;5210569;28;20025;-74
2022/08/27 01:36:32;;;;;;;20.38;11.60;;;;;;;21.23;100.00;100378.97;5190273;28;20517;-74
2022/08/27 01:39:03;;;;;;;23.30;12.75;;;;;;;21.16;100.00;100381.31;5211944;28;20717;-74
2022/08/27 01:41:33;;;;;;;19.10;11.93;;;;;;;21.15;100.00;100389.38;5211750;28;20031;-72
2022/08/27 01:44:03;;;;;;;23.40;12.38;;;;;;;21.10;100.00;100394.25;5212680;28;20037;-73
2022/08/27 01:46:35;;;;;;;22.90;12.13;;;;;;;21.03;100.00;100396.56;5208925;28;20324;-72
2022/08/27 01:49:05;;;;;;;23.80;12.45;;;;;;;21.03;100.00;100393.91;5208435;28;20021;-72
2022/08/27 01:51:36;;;;;;;27.70;13.45;;;;;;;20.93;100.00;100389.47;5193934;28;20065;-73
2022/08/27 01:54:06;;;;;;;19.92;11.80;;;;;;;20.91;100.00;100388.75;5204038;28;20513;-72
2022/08/27 01:56:36;;;;;;;20.08;12.65;;;;;;;20.97;100.00;100390.88;5206594;28;20058;-74
2022/08/27 01:59:06;;;;;;;21.02;11.77;;;;;;;21.07;100.00;100386.53;5193758;28;20040;-72
2022/08/27 02:01:37;;;;;;;22.02;12.10;;;;;;;21.05;100.00;100393.78;5211858;28;20031;-72
2022/08/27 02:04:08;;;;;;;22.27;12.50;;;;;;;20.96;100.00;100387.41;5211772;28;20024;-74
2022/08/27 02:06:39;;;;;;;24.90;12.95;;;;;;;20.89;100.00;100390.69;5210205;28;20678;-74
2022/08/27 02:09:09;;;;;;;24.95;12.15;;;;;;;20.96;100.00;100389.19;5210814;28;20083;-74
2022/08/27 02:11:39;;;;;;;23.88;12.15;;;;;;;20.90;100.00;100385.22;5211953;28;20036;-72
2022/08/27 02:14:10;;;;;;;20.88;12.35;;;;;;;20.84;100.00;100393.69;5211134;28;20478;-72
2022/08/27 02:16:41;;;;;;;23.63;12.10;;;;;;;20.88;100.00;100389.81;5208406;28;20333;-73
2022/08/27 02:19:11;;;;;;;23.90;11.32;;;;;;;21.02;100.00;100394.88;5200320;28;20032;-71
2022/08/27 02:21:41;;;;;;;20.67;11.98;;;;;;;20.98;100.00;100392.56;5211575;28;20040;-72
2022/08/27 02:24:12;;;;;;;25.58;12.18;;;;;;;20.94;100.00;100401.78;5201558;28;20102;-72
2022/08/27 02:26:42;;;;;;;22.83;11.23;;;;;;;20.93;100.00;100405.41;5206590;28;20061;-72
2022/08/27 02:29:13;;;;;;;25.17;11.88;;;;;;;20.93;100.00;100408.06;5208880;28;20029;-72
2022/08/27 02:31:43;;;;;;;26.65;11.27;;;;;;;21.01;100.00;100411.78;5211831;28;20454;-74
2022/08/27 02:34:14;;;;;;;20.17;11.18;;;;;;;20.87;100.00;100406.72;5209452;28;20108;-72
2022/08/27 02:36:44;;;;;;;24.67;11.10;;;;;;;20.95;100.00;100408.78;5209697;28;20033;-73
2022/08/27 02:39:15;;;;;;;21.15;10.95;;;;;;;21.02;100.00;100412.63;5208793;28;20430;-73
2022/08/27 02:41:45;;;;;;;26.35;12.05;;;;;;;21.02;100.00;100415.28;5212199;28;20075;-73
2022/08/27 02:44:16;;;;;;;23.13;11.10;;;;;;;21.00;100.00;100409.25;5209513;28;20036;-73
2022/08/27 02:46:46;;;;;;;24.13;11.65;;;;;;;20.91;100.00;100402.84;5207787;28;20053;-73
2022/08/27 02:49:17;;;;;;;21.33;10.88;;;;;;;20.91;100.00;100410.00;5199202;28;20106;-72
2022/08/27 02:51:47;;;;;;;25.83;11.43;;;;;;;20.89;100.00;100409.28;5212149;28;20036;-72
2022/08/27 02:54:17;;;;;;;24.17;11.27;;;;;;;20.79;100.00;100413.59;5200150;28;20021;-74
2022/08/27 02:56:47;;;;;;;23.42;10.30;;;;;;;20.72;100.00;100418.53;5205724;28;20028;-74
2022/08/27 02:59:19;;;;;;;21.92;11.05;;;;;;;20.76;100.00;100413.84;5208500;28;20029;-74
2022/08/27 03:01:50;;;;;;;26.08;11.65;;;;;;;20.73;100.00;100411.44;5212451;28;20110;-74
2022/08/27 03:04:21;;;;;;;28.80;10.75;;;;;;;20.73;100.00;100417.56;5208174;28;20100;-74
2022/08/27 03:06:51;;;;;;;26.23;11.45;;;;;;;20.65;100.00;100416.50;5211026;28;20040;-74
2022/08/27 03:09:22;;;;;;;19.15;10.75;;;;;;;20.56;100.00;100417.25;5207441;28;20014;-74
2022/08/27 03:11:52;;;;;;;23.27;10.55;;;;;;;20.68;100.00;100410.94;5204136;28;20479;-74
2022/08/27 03:14:23;;;;;;;22.42;10.23;;;;;;;20.67;100.00;100417.22;5212371;28;20478;-74
2022/08/27 03:16:54;;;;;;;28.05;9.93;;;;;;;20.60;100.00;100416.03;5205504;28;20297;-74
2022/08/27 03:19:25;;;;;;;19.95;10.23;;;;;;;20.71;100.00;100408.88;5199276;28;20029;-73
2022/08/27 03:21:55;;;;;;;21.05;9.98;;;;;;;20.58;100.00;100411.78;5207222;28;20048;-74
2022/08/27 03:24:25;;;;;;;20.05;10.02;;;;;;;20.58;100.00;100412.66;5205798;28;20028;-73
2022/08/27 03:26:56;;;;;;;23.50;9.95;;;;;;;20.68;100.00;100395.84;5207284;28;20479;-74
2022/08/27 03:29:26;;;;;;;21.50;10.57;;;;;;;20.63;100.00;100406.97;5211187;28;20028;-74
2022/08/27 03:31:57;;;;;;;22.13;9.80;;;;;;;20.64;100.00;100404.19;5208550;28;20030;-73
2022/08/27 03:34:27;;;;;;;27.23;9.63;;;;;;;20.56;100.00;100401.31;5211042;28;20316;-74
2022/08/27 03:36:59;;;;;;;20.95;9.55;;;;;;;20.57;100.00;100403.00;5207289;28;20041;-74
2022/08/27 03:39:29;;;;;;;20.42;9.90;;;;;;;20.51;100.00;100403.47;5210048;28;20162;-74
2022/08/27 03:41:59;;;;;;;23.25;10.30;;;;;;;20.54;100.00;100403.25;5208549;28;20136;-74
2022/08/27 03:44:30;;;;;;;23.20;9.75;;;;;;;20.68;100.00;100397.66;5211410;28;20029;-74
2022/08/27 03:47:00;;;;;;;22.02;9.20;;;;;;;20.63;100.00;100402.50;5204410;28;20044;-74
2022/08/27 03:49:31;;;;;;;18.13;9.73;;;;;;;20.56;100.00;100400.44;5200335;28;20017;-73
2022/08/27 03:52:02;;;;;;;17.20;9.20;;;;;;;20.53;100.00;100401.56;5206893;28;20043;-74
2022/08/27 03:54:36;;;;;;;18.27;9.38;;;;;;;20.50;100.00;100404.44;5199256;28;20386;-73
2022/08/27 03:57:07;;;;;;;17.63;9.07;;;;;;;20.49;100.00;100401.91;5205122;28;20024;-74
2022/08/27 03:59:38;;;;;;;20.77;9.27;;;;;;;20.46;100.00;100400.34;5209205;28;20032;-73
2022/08/27 04:02:08;;;;;;;25.73;9.85;;;;;;;20.41;100.00;100402.50;5209749;28;20040;-74
2022/08/27 04:04:38;;;;;;;19.85;9.55;;;;;;;20.43;100.00;100400.56;5208849;28;20099;-74
2022/08/27 04:07:09;;;;;;;24.92;10.07;;;;;;;20.38;100.00;100392.13;5208743;28;20029;-73
2022/08/27 04:09:39;;;;;;;20.70;9.32;;;;;;;20.38;100.00;100391.28;5184463;28;20044;-73
2022/08/27 04:12:10;;;;;;;26.48;8.88;;;;;;;20.45;100.00;100387.19;5203764;28;20026;-74
2022/08/27 04:14:40;;;;;;;19.52;8.75;;;;;;;20.42;100.00;100390.06;5209523;28;20033;-73
2022/08/27 04:17:11;;;;;;;18.77;8.70;;;;;;;20.40;100.00;100397.31;5204460;28;20025;-73
2022/08/27 04:19:41;;;;;;;24.02;8.95;;;;;;;20.32;100.00;100389.94;5200441;28;20407;-74
2022/08/27 04:22:11;;;;;;;19.83;8.35;;;;;;;20.31;100.00;100390.91;5208948;28;20037;-74
2022/08/27 04:24:42;;;;;;;18.42;8.43;;;;;;;20.36;100.00;100385.25;5210069;28;20029;-74
2022/08/27 04:27:13;;;;;;;17.50;7.40;;;;;;;20.30;100.00;100393.69;5207675;28;20495;-74
2022/08/27 04:29:44;;;;;;;16.45;7.47;;;;;;;20.41;100.00;100397.19;5209606;28;20017;-74
2022/08/27 04:32:14;;;;;;;13.52;7.20;;;;;;;20.42;100.00;100398.03;5208480;28;20029;-73
2022/08/27 04:34:44;;;;;;;15.05;6.50;;;;;;;20.39;100.00;100391.16;5202919;28;20022;-73
2022/08/27 04:37:15;;;;;;;14.98;6.50;;;;;;;20.49;100.00;100405.41;5191201;28;20299;-74
2022/08/27 04:39:45;;;;;;;11.80;5.60;;;;;;;20.46;100.00;100402.16;5206783;28;20017;-74
2022/08/27 04:42:17;;;;;;;14.88;6.20;;;;;;;20.33;100.00;100404.91;5210803;28;20028;-74
2022/08/27 04:44:47;;;;;;;10.13;5.43;;;;;;;20.42;100.00;100409.50;5207853;28;20311;-74
2022/08/27 04:47:19;;;;;;;12.48;5.43;;;;;;;20.55;100.00;100412.91;5204418;28;20499;-74
2022/08/27 04:49:49;;;;;;;13.60;5.00;;;;;;;20.46;100.00;100408.28;5201590;28;20115;-74
2022/08/27 04:52:19;;;;;;;11.27;5.22;;;;;;;20.41;100.00;100418.44;5210209;28;20391;-74
2022/08/27 04:54:50;;;;;;;9.20;4.65;;;;;;;20.45;100.00;100409.25;5214218;28;20112;-73
2022/08/27 04:57:20;;;;;;;9.57;4.70;;;;;;;20.44;100.00;100412.88;5209150;28;20032;-73
2022/08/27 04:59:51;;;;;;;11.85;4.75;;;;;;;20.37;100.00;100411.69;5196163;28;20566;-74
2022/08/27 05:02:21;;;;;;;11.57;4.82;;;;;;;20.36;100.00;100414.44;5212249;28;20565;-74
2022/08/27 05:04:51;;;;;;;8.65;4.65;;;;;;;20.46;100.00;100416.25;5211755;28;20111;-74
2022/08/27 05:07:22;;;;;;;14.00;5.18;;;;;;;20.48;100.00;100414.31;5213492;28;20070;-74
2022/08/27 05:09:53;;;;;;;10.32;4.32;;;;;;;20.26;100.00;100414.31;5205471;28;20029;-74
2022/08/27 05:12:23;;;;;;;8.88;4.97;;;;;;;20.43;100.00;100416.50;5214774;28;20024;-74
2022/08/27 05:14:53;;;;;;;11.07;4.47;;;;;;;20.42;100.00;100413.97;5210466;28;20041;-74
2022/08/27 05:17:23;;;;;;;9.65;4.53;;;;;;;20.25;100.00;100417.94;5207132;28;20284;-74
2022/08/27 05:19:54;;;;;;;11.80;4.75;;;;;;;20.42;100.00;100414.81;5205069;28;20035;-74
2022/08/27 05:22:26;;;;;;;9.90;3.97;;;;;;;20.40;100.00;100418.56;5210242;28;20395;-74
2022/08/27 05:24:56;;;;;;;10.20;4.50;;;;;;;20.48;100.00;100418.81;5213368;28;20504;-73
2022/08/27 05:27:27;;;;;;;15.18;5.10;;;;;;;20.47;100.00;100428.56;5208040;28;20029;-74
2022/08/27 05:29:57;;;;;;;13.43;4.85;;;;;;;20.49;100.00;100420.50;5211333;28;20437;-74
2022/08/27 05:32:27;;;;;;;8.85;4.47;;;;;;;20.37;100.00;100422.31;5190360;28;20036;-74
2022/08/27 05:34:58;;;;;;;13.45;5.00;;;;;;;20.48;100.00;100422.28;5206827;28;20032;-73
2022/08/27 05:37:28;;;;;;;13.75;5.57;;;;;;;20.34;100.00;100417.25;5210949;28;20028;-74
2022/08/27 05:40:00;;;;;;;14.13;5.03;;;;;;;20.26;100.00;100419.63;5210802;28;20362;-74
2022/08/27 05:42:31;;;;;;;13.05;5.13;;;;;;;20.35;100.00;100428.69;5213464;28;20376;-74
2022/08/27 05:45:01;;;;;;;10.73;5.07;;;;;;;20.38;100.00;100421.34;5191963;28;20037;-74
2022/08/27 05:47:32;;;;;;;14.88;4.68;;;;;;;20.40;100.00;100415.91;5204821;28;20033;-74
2022/08/27 05:50:02;;;;;;;13.38;5.10;;;;;;;20.39;100.00;100419.53;5205250;28;20056;-74
2022/08/27 05:52:35;;;;;;;12.55;4.72;;;;;;;20.37;100.00;100421.44;5211594;28;20467;-74
2022/08/27 05:55:05;;;;;;;15.52;5.18;;;;;;;20.47;100.00;100415.28;5212360;28;20025;-74
2022/08/27 05:57:36;;;;;;;11.18;5.20;;;;;;;20.43;100.00;100415.69;5210167;28;20388;-74
2022/08/27 06:02:56;;;;;;;14.85;5.65;;;;;;;20.37;100.00;100418.78;5191057;28;20099;-74
2022/08/27 06:05:26;;;;;;;13.10;5.43;;;;;;;20.35;100.00;100424.25;5213174;28;20025;-74
2022/08/27 06:07:56;;;;;;;13.13;6.10;;;;;;;20.33;100.00;100418.19;5208325;28;20519;-74
2022/08/27 06:10:27;;;;;;;14.50;5.80;;;;;;;20.35;100.00;100423.38;5211538;28;20132;-74
2022/08/27 06:12:57;;;;;;;12.32;5.25;;;;;;;20.41;100.00;100422.88;5210310;28;20310;-74
2022/08/27 06:15:28;;;;;;;17.30;6.43;;;;;;;20.34;100.00;100422.56;5212784;28;20033;-74
2022/08/27 06:17:58;;;;;;;14.48;5.57;;;;;;;20.38;100.00;100418.69;5201615;28;20395;-74
2022/08/27 06:20:28;;;;;;;15.77;6.10;;;;;;;20.46;100.00;100423.41;5205639;28;20017;-74
2022/08/27 06:22:59;;;;;;;13.63;5.78;;;;;;;20.42;100.00;100420.13;5207535;28;20026;-74
2022/08/27 06:25:31;;;;;;;14.82;5.57;;;;;;;20.35;100.00;100424.25;5190684;28;20538;-74
2022/08/27 06:28:01;;;;;;;12.88;5.95;;;;;;;20.39;100.00;100431.00;5206240;28;20036;-74
2022/08/27 06:30:32;;;;;;;13.93;5.93;;;;;;;20.47;100.00;100419.78;5204966;28;20033;-73
2022/08/27 06:33:02;;;;;;;14.90;5.65;;;;;;;20.34;100.00;100427.88;5207956;28;20026;-74
2022/08/27 06:35:35;;;;;;;14.57;5.80;;;;;;;20.43;100.00;100428.97;5204972;28;20029;-74
2022/08/27 06:38:06;;;;;;;15.10;5.60;;;;;;;20.37;100.00;100427.63;5210061;28;20021;-74
2022/08/27 06:40:40;;;;;;;15.38;6.40;;;;;;;20.36;100.00;100423.28;5210869;28;20026;-74
2022/08/27 06:43:11;;;;;;;18.25;6.32;;;;;;;20.33;100.00;100431.44;5210513;28;20052;-72
2022/08/27 06:45:41;;;;;;;16.92;6.47;;;;;;;20.34;100.00;100434.97;5210262;28;21073;-74
2022/08/27 06:48:11;;;;;;;18.77;6.55;;;;;;;20.39;100.00;100436.31;5201714;28;20391;-74
2022/08/27 06:50:43;;;;;;;15.88;6.70;;;;;;;20.29;100.00;100440.63;5207206;28;20041;-74
2022/08/27 06:53:14;;;;;;;19.77;6.80;;;;;;;20.31;100.00;100433.38;5210578;28;20168;-73
2022/08/27 06:55:46;;;;;;;18.33;7.10;;;;;;;20.27;100.00;100431.94;5211348;28;20104;-73
2022/08/27 06:58:18;;;;;;;14.52;6.32;;;;;;;20.30;100.00;100441.50;5207854;28;20048;-74
2022/08/27 07:00:49;;;;;;;19.00;5.95;;;;;;;20.39;100.00;100444.28;5212035;28;20016;-74
2022/08/27 07:03:20;;;;;;;13.73;6.00;;;;;;;20.47;100.00;100451.66;5208530;28;20036;-74
2022/08/27 07:05:50;;;;;;;15.75;6.32;;;;;;;20.42;100.00;100448.47;5210614;28;20032;-74
2022/08/27 07:08:20;;;;;;;14.63;6.10;;;;;;;20.35;100.00;100456.09;5210657;28;20490;-74
2022/08/27 07:10:56;;;;;;;18.98;7.18;;;;;;;20.21;100.00;100453.66;5208613;28;20041;-74
2022/08/27 07:13:28;;;;;;;20.40;7.32;;;;;;;20.28;100.00;100451.38;5205193;28;20029;-74
2022/08/27 07:16:04;;;;;;;17.75;6.72;;;;;;;20.27;100.00;100462.97;5210970;28;20061;-74
2022/08/27 07:18:35;;;;;;;16.17;7.03;;;;;;;20.41;100.00;100458.28;5198420;28;20025;-73
2022/08/27 07:21:06;;;;;;;18.40;6.15;;;;;;;20.48;100.00;100466.63;5207759;28;20534;-74
2022/08/27 07:23:38;;;;;;;18.23;6.03;;;;;;;20.39;100.00;100460.19;5210391;28;20029;-74
2022/08/27 07:26:10;;;;;;;14.25;6.30;;;;;;;20.39;100.00;100462.84;5209990;28;20033;-74
2022/08/27 07:28:43;;;;;;;12.25;5.72;;;;;;;20.51;100.00;100461.88;5207949;28;20029;-74
2022/08/27 07:31:18;;;;;;;15.13;6.13;;;;;;;20.57;100.00;100469.41;5210531;28;20033;-74
2022/08/27 07:33:49;;;;;;;17.60;7.45;;;;;;;20.53;100.00;100470.59;5190669;28;20310;-74
2022/08/27 07:36:21;;;;;;;14.20;6.43;;;;;;;20.56;100.00;100469.50;5211261;28;20481;-74
2022/08/27 07:38:51;;;;;;;14.40;6.18;;;;;;;20.52;100.00;100468.06;5206221;28;20722;-73
2022/08/27 07:41:22;;;;;;;15.88;6.70;;;;;;;20.51;100.00;100467.19;5212394;28;20025;-74
2022/08/27 07:46:41;;;;;;;16.50;6.35;;;;;;;20.48;100.00;100470.09;5204284;28;20056;-74
2022/08/27 07:49:12;;;;;;;16.45;6.80;;;;;;;20.54;100.00;100472.28;5198161;28;20061;-74
2022/08/27 07:51:44;;;;;;;15.27;6.88;;;;;;;20.53;100.00;100475.06;5210509;28;20075;-74
2022/08/27 07:54:15;;;;;;;16.63;6.15;;;;;;;20.54;100.00;100471.44;5208516;28;20033;-74
2022/08/27 07:56:46;;;;;;;17.15;5.88;;;;;;;20.56;100.00;100480.97;5209931;28;20051;-74
2022/08/27 07:59:16;;;;;;;16.92;6.20;;;;;;;20.53;100.00;100489.19;5202878;28;20021;-74
2022/08/27 08:01:47;;;;;;;15.98;5.90;;;;;;;20.52;100.00;100484.84;5199461;28;20092;-74
2022/08/27 08:04:18;;;;;;;18.50;6.75;;;;;;;20.54;100.00;100482.91;5201137;28;20470;-73
2022/08/27 08:06:49;;;;;;;19.10;6.07;;;;;;;20.62;100.00;100480.50;5194757;28;20029;-74
2022/08/27 08:09:22;;;;;;;15.43;6.15;;;;;;;20.57;100.00;100477.34;5194435;28;20071;-74
2022/08/27 08:11:53;;;;;;;17.35;6.15;;;;;;;20.71;100.00;100485.09;5197453;28;20032;-74
2022/08/27 08:14:23;;;;;;;15.48;6.10;;;;;;;20.75;100.00;100489.19;5206083;28;20029;-74
2022/08/27 08:16:58;;;;;;;17.75;6.18;;;;;;;20.76;100.00;100489.06;5203839;28;20528;-74
2022/08/27 08:19:29;;;;;;;19.15;6.55;;;;;;;20.79;100.00;100490.66;5197852;28;20022;-74
2022/08/27 08:22:00;;;;;;;18.27;5.97;;;;;;;20.88;100.00;100487.31;5208720;28;20056;-74
2022/08/27 08:24:30;;;;;;;16.17;6.18;;;;;;;20.88;100.00;100493.44;5207617;28;20025;-74
2022/08/27 08:27:01;;;;;;;20.00;6.55;;;;;;;20.74;100.00;100493.66;5208752;28;20029;-74
2022/08/27 08:29:31;;;;;;;18.15;5.57;;;;;;;20.84;100.00;100497.31;5191535;28;20029;-74
2022/08/27 08:32:02;;;;;;;15.57;5.88;;;;;;;20.99;100.00;100503.22;5193424;28;20048;-74
2022/08/27 08:34:34;;;;;;;19.02;6.13;;;;;;;20.89;100.00;100503.13;5212484;28;20021;-74
2022/08/27 08:37:06;;;;;;;23.27;5.85;;;;;;;21.00;100.00;100502.25;5193397;28;20036;-74
2022/08/27 08:39:36;;;;;;;13.88;5.53;;;;;;;20.90;100.00;100511.94;5211457;28;20471;-74
2022/08/27 08:42:34;;;;;;;22.05;5.65;;;;;;;20.84;100.00;100513.28;5212258;28;20035;-74
2022/08/27 08:45:06;;;;;;;14.65;4.78;;;;;;;20.87;100.00;100515.69;5209592;28;20045;-74
2022/08/27 08:48:14;;;;;;;12.90;5.13;;;;;;;20.91;100.00;100518.94;5186126;28;20048;-73
2022/08/27 08:50:57;;;;;;;13.07;4.75;;;;;;;20.95;100.00;100515.06;5211369;28;20049;-74
2022/08/27 08:53:30;;;;;;;14.68;5.13;;;;;;;20.82;100.00;100515.16;5207673;28;20063;-74
2022/08/27 08:56:06;;;;;;;17.10;5.30;;;;;;;20.88;100.00;100511.22;5212539;28;20037;-74
2022/08/27 08:58:58;;;;;;;14.93;5.45;;;;;;;20.82;100.00;100514.31;5207365;28;20072;-74
2022/08/27 09:01:28;;;;;;;18.90;5.43;;;;;;;20.81;100.00;100517.94;5207595;28;20087;-74
2022/08/27 09:04:02;;;;;;;14.10;5.05;;;;;;;20.78;100.00;100510.22;5210183;28;20041;-74
2022/08/27 09:06:57;;;;;;;20.08;5.50;;;;;;;20.73;100.00;100515.03;5209627;28;20515;-74
2022/08/27 09:09:43;;;;;;;13.60;5.30;;;;;;;20.80;100.00;100516.25;5206571;28;20053;-74
2022/08/27 09:12:29;;;;;;;12.98;4.80;;;;;;;20.91;100.00;100517.13;5210968;28;20398;-74
2022/08/27 09:15:09;;;;;;;12.95;5.43;;;;;;;20.87;100.00;100517.50;5207078;28;20410;-74
2022/08/27 09:17:40;;;;;;;13.95;4.97;;;;;;;20.94;100.00;100514.25;5202837;28;20036;-74
2022/08/27 09:20:11;;;;;;;17.67;5.45;;;;;;;21.05;100.00;100526.69;5205081;28;20060;-74
2022/08/27 09:22:50;;;;;;;17.52;5.07;;;;;;;21.04;100.00;100525.81;5208570;28;20534;-74
2022/08/27 09:25:27;;;;;;;16.40;5.20;;;;;;;21.07;100.00;100525.56;5210064;28;20064;-74
2022/08/27 09:28:00;;;;;;;14.40;5.15;;;;;;;20.99;100.00;100521.84;5183678;28;20032;-74
2022/08/27 09:30:40;;;;;;;18.60;6.18;;;;;;;21.28;100.00;100525.69;5187159;28;20290;-74
2022/08/27 09:33:11;;;;;;;14.93;5.00;;;;;;;21.27;100.00;100516.84;5207615;28;20101;-74
2022/08/27 09:35:45;;;;;;;14.05;4.47;;;;;;;21.25;100.00;100517.97;5204954;28;20399;-74
2022/08/27 09:38:29;;;;;;;15.32;4.60;;;;;;;21.42;100.00;100506.81;5206199;28;20087;-74
2022/08/27 09:41:04;;;;;;;13.63;4.70;;;;;;;21.44;100.00;100520.81;5206663;28;20049;-74
2022/08/27 09:43:35;;;;;;;11.57;4.43;;;;;;;21.52;100.00;100515.72;5207249;28;20029;-74
2022/08/27 09:46:20;;;;;;;19.52;5.38;;;;;;;21.60;100.00;100514.13;5202585;28;20042;-74
2022/08/27 09:48:51;;;;;;;10.48;4.38;;;;;;;21.54;100.00;100519.13;5203897;28;20036;-74
2022/08/27 09:51:26;;;;;;;12.85;4.45;;;;;;;21.67;100.00;100519.81;5204960;28;20034;-74
2022/08/27 09:54:03;;;;;;;14.07;4.55;;;;;;;21.63;100.00;100521.03;5200694;28;20096;-74
2022/08/27 09:56:37;;;;;;;16.42;4.35;;;;;;;21.46;100.00;100526.84;5202684;28;20040;-74
2022/08/27 09:59:21;;;;;;;15.93;5.15;;;;;;;21.42;100.00;100523.59;5202207;28;20028;-74
2022/08/27 10:02:13;;;;;;;16.52;5.05;;;;;;;21.38;100.00;100521.34;5205985;28;20052;-74
2022/08/27 10:04:45;;;;;;;8.80;4.28;;;;;;;21.38;100.00;100524.00;5204857;28;20032;-74
2022/08/27 10:07:21;;;;;;;14.98;4.85;;;;;;;21.34;100.00;100515.41;5205413;28;20025;-74
2022/08/27 10:10:02;;;;;;;16.40;4.65;;;;;;;21.35;100.00;100511.78;5205786;28;20395;-74
2022/08/27 10:12:35;;;;;;;15.55;4.55;;;;;;;21.34;100.00;100526.03;5195355;28;21352;-74
2022/08/27 10:15:07;;;;;;;14.88;4.57;;;;;;;21.26;100.00;100515.16;5202982;28;20034;-74
2022/08/27 10:17:40;;;;;;;13.27;5.03;;;;;;;21.15;100.00;100519.66;5198856;28;20414;-74
2022/08/27 10:20:29;;;;;;;14.65;4.82;;;;;;;21.15;100.00;100520.50;5203029;28;20036;-74
2022/08/27 10:23:21;;;;;;;13.18;4.88;;;;;;;21.15;100.00;100520.50;5202921;28;20241;-74
2022/08/27 10:26:07;;;;;;;14.70;4.80;;;;;;;21.23;100.00;100522.56;5203574;28;20070;-74
2022/08/27 10:29:01;;;;;;;16.52;4.53;;;;;;;21.15;100.00;100523.16;5206285;28;20037;-74
2022/08/27 10:31:52;;;;;;;10.98;4.40;;;;;;;21.33;100.00;100526.16;5188287;28;20487;-74
2022/08/27 10:35:02;;;;;;;10.38;4.25;;;;;;;21.17;100.00;100529.22;5202812;28;20037;-74
2022/08/27 10:37:55;;;;;;;12.85;4.15;;;;;;;21.20;100.00;100525.47;5201215;28;20441;-74
2022/08/27 10:40:41;;;;;;;14.63;4.68;;;;;;;21.13;100.00;100530.41;5204976;28;20394;-74
2022/08/27 10:43:17;;;;;;;14.55;4.80;;;;;;;21.05;100.00;100535.47;5209608;28;20028;-74
2022/08/27 10:46:09;;;;;;;12.45;4.47;;;;;;;20.98;100.00;100531.63;5210685;28;20029;-74
2022/08/27 10:49:06;;;;;;;12.10;4.82;;;;;;;21.06;100.00;100531.03;5192247;28;20079;-74
2022/08/27 10:51:51;;;;;;;11.55;4.57;;;;;;;21.08;100.00;100531.75;5192448;28;20044;-74
2022/08/27 10:54:34;;;;;;;13.00;4.75;;;;;;;21.00;100.00;100539.47;5203968;28;20551;-74
2022/08/27 10:57:13;;;;;;;12.82;4.47;;;;;;;21.13;100.00;100530.41;5201272;28;20049;-74
2022/08/27 11:00:12;;;;;;;13.27;4.53;;;;;;;20.90;100.00;100528.72;5206927;28;20025;-74
2022/08/27 11:03:07;;;;;;;13.15;4.50;;;;;;;21.05;100.00;100537.31;5189378;28;20485;-75
2022/08/27 11:05:46;;;;;;;13.05;4.68;;;;;;;21.02;100.00;100535.72;5206628;28;20025;-74
2022/08/27 11:08:34;;;;;;;12.55;4.63;;;;;;;21.13;100.00;100530.41;5201464;28;20041;-74
2022/08/27 11:11:10;;;;;;;16.63;4.90;;;;;;;21.20;100.00;100541.41;5206036;28;20122;-74
2022/08/27 11:13:45;;;;;;;;;;;;;;;21.24;100.00;100534.88;5203353;28;20040;-74
2022/08/27 11:16:23;;;;;;;15.35;4.40;;;;;;;21.31;100.00;100544.03;5200787;28;20116;-74
2022/08/27 11:19:01;;;;;;;13.48;4.22;;;;;;;21.20;100.00;100536.94;5197104;28;20033;-74
2022/08/27 11:22:00;;;;;;;14.10;4.45;;;;;;;21.30;100.00;100545.00;5202637;28;20025;-74
2022/08/27 11:24:34;;;;;;;12.93;4.55;;;;;;;21.16;100.00;100542.59;5196232;28;20060;-74
2022/08/27 11:27:06;;;;;;;10.10;4.28;;;;;;;21.32;100.00;100551.91;5206589;28;20033;-74
2022/08/27 11:30:09;;;;;;;18.15;4.82;;;;;;;21.26;100.00;100556.88;5207722;28;20029;-74
2022/08/27 11:33:08;;;;;;;14.93;4.70;;;;;;;21.25;100.00;100560.50;5176537;28;20041;-74
2022/08/27 11:35:53;;;;;;;11.75;4.60;;;;;;;21.28;100.00;100552.28;5206685;28;20394;-75
2022/08/27 11:38:55;;;;;;;13.40;4.40;;;;;;;21.41;100.00;100560.97;5195949;28;20795;-74
2022/08/27 11:41:55;;;;;;;14.30;4.95;;;;;;;21.34;100.00;100560.63;5199140;28;20306;-75
2022/08/27 11:44:27;;;;;;;13.30;5.25;;;;;;;21.26;100.00;100563.03;5204905;28;20116;-74
2022/08/27 11:47:10;;;;;;;18.77;5.07;;;;;;;21.27;100.00;100566.53;5201815;28;20391;-74